Nikolski, AK NWLON current weather conditions

sailwx.info

Wind from 297 at 21 knots gusting 26

Last reported at 2020-Aug-04 03:42 UTC.
Time now 2020-Aug-04 05:25 UTC

Location: N 52°56' W 168°52'.
View on Google Maps.

See reports from other nearby stations

  
Tides and Currents Weather Stations Pressure Air Temp Water Temp Dewpoint Dewpoint Depression Visibility Wind Speed Wind Dir Waves Ship Positions
date/time (UTC)wind fromknots sea level pressurealtimeterstation pressurevisibilityair tempwater tempwave heightnotes
2020-Aug-04 03:42 297 21 gusting 26
2020-Aug-04 03:36 297 22 gusting 26
2020-Aug-04 03:30 297 21 gusting 26
2020-Aug-04 03:24 292 24 gusting 26
2020-Aug-04 03:18 292 24 gusting 26
2020-Aug-04 03:12 292 21 gusting 26
2020-Aug-04 03:06 294 21 gusting 26
2020-Aug-04 03:00 291 22 gusting 26
2020-Aug-04 02:42 292 22 gusting 25
2020-Aug-04 02:36 293 22 gusting 26
2020-Aug-04 02:30 296 20 gusting 25
2020-Aug-04 02:24 295 22 gusting 25
2020-Aug-04 02:18 294 20 gusting 23
2020-Aug-04 02:06 298 19 gusting 24
2020-Aug-04 01:54 300 19 gusting 22
2020-Aug-04 01:48 299 19 gusting 24
2020-Aug-04 01:42 300 19 gusting 23
2020-Aug-04 01:36 295 21 gusting 24
2020-Aug-04 01:30 300 22 gusting 26
2020-Aug-04 01:24 296 19 gusting 22
2020-Aug-04 01:18 295 18 gusting 21
2020-Aug-04 01:12 295 18 gusting 20
2020-Aug-04 01:06 295 18 gusting 22
2020-Aug-04 01:00 295 18 gusting 19
2020-Aug-04 00:54 299 17 gusting 20
2020-Aug-04 00:48 308 19 gusting 20
2020-Aug-04 00:42 308 20 gusting 24
2020-Aug-04 00:36 306 19 gusting 22
2020-Aug-04 00:30 302 19 gusting 23
2020-Aug-04 00:24 301 19 gusting 23
2020-Aug-04 00:18 302 20 gusting 26
2020-Aug-04 00:12 302 21 gusting 25
2020-Aug-04 00:06 300 20 gusting 24
2020-Aug-04 00:00 297 19 gusting 23
2020-Aug-03 23:48 295 19 gusting 22
2020-Aug-03 23:42 295 19 gusting 22
2020-Aug-03 23:36 295 18 gusting 22
2020-Aug-03 23:30 292 18 gusting 20
2020-Aug-03 23:24 292 17 gusting 19
2020-Aug-03 23:18 295 18 gusting 19
2020-Aug-03 23:12 299 15 gusting 19
2020-Aug-03 23:06 300 16 gusting 20
2020-Aug-03 23:00 300 18 gusting 21
2020-Aug-03 22:54 297 18 gusting 20
2020-Aug-03 22:48 297 18 gusting 21
2020-Aug-03 22:42 296 19 gusting 20
2020-Aug-03 22:36 295 18 gusting 20
2020-Aug-03 22:30 295 18 gusting 20
2020-Aug-03 22:24 293 17 gusting 20
2020-Aug-03 22:18 294 16 gusting 19
2020-Aug-03 22:12 298 13 gusting 16
2020-Aug-03 22:06 301 13 gusting 15
2020-Aug-03 22:00 302 13 gusting 15
2020-Aug-03 21:54 306 13 gusting 16
2020-Aug-03 21:48 307 15 gusting 18
2020-Aug-03 21:42 303 15 gusting 19
2020-Aug-03 21:36 302 16 gusting 19
2020-Aug-03 21:30 301 18 gusting 21
2020-Aug-03 21:24 302 16 gusting 19
2020-Aug-03 21:18 302 16 gusting 18
2020-Aug-03 21:12 303 14 gusting 19
2020-Aug-03 21:06 300 15 gusting 19
2020-Aug-03 21:00 293 15 gusting 19
2020-Aug-03 20:54 295 16 gusting 19
2020-Aug-03 20:48 296 15 gusting 19
2020-Aug-03 20:42 296 17 gusting 19
2020-Aug-03 20:36 295 17 gusting 19
2020-Aug-03 20:30 295 16 gusting 19
2020-Aug-03 20:24 290 15 gusting 18
2020-Aug-03 20:18 291 16 gusting 18
2020-Aug-03 20:12 294 15 gusting 18
2020-Aug-03 20:06 298 15 gusting 19
2020-Aug-03 20:00 295 16 gusting 19
2020-Aug-03 19:42 303 13 gusting 16
2020-Aug-03 19:36 298 14 gusting 18
2020-Aug-03 19:30 295 16 gusting 19
2020-Aug-03 19:24 292 18 gusting 20
2020-Aug-03 19:18 293 16 gusting 19
2020-Aug-03 19:12 293 16 gusting 19
2020-Aug-03 19:06 300 15 gusting 18
2020-Aug-03 19:00 300 16 gusting 18
2020-Aug-03 18:42 302 15 gusting 19
2020-Aug-03 18:36 304 16 gusting 19
2020-Aug-03 18:30 302 17 gusting 20
2020-Aug-03 18:24 302 16 gusting 19
2020-Aug-03 18:18 299 15 gusting 18
2020-Aug-03 18:12 300 15 gusting 18
2020-Aug-03 18:06 295 16 gusting 19
2020-Aug-03 18:00 291 17 gusting 18
2020-Aug-03 17:42 295 13 gusting 15
2020-Aug-03 17:36 296 13 gusting 15
2020-Aug-03 17:30 299 13 gusting 15
2020-Aug-03 17:24 304 12 gusting 14
2020-Aug-03 17:18 310 12 gusting 13
2020-Aug-03 17:12 320 13 gusting 14
2020-Aug-03 17:06 321 13 gusting 17
2020-Aug-03 17:00 311 18 gusting 19
2020-Aug-03 14:42 298 13 gusting 16
2020-Aug-03 14:36 297 14 gusting 16
2020-Aug-03 14:30 298 15 gusting 18
2020-Aug-03 14:24 299 14 gusting 19
2020-Aug-03 14:18 294 15 gusting 18
2020-Aug-03 14:12 292 16 gusting 19
2020-Aug-03 14:06 289 18 gusting 19
2020-Aug-03 14:00 288 16 gusting 19
2020-Aug-03 13:42 299 13 gusting 16
2020-Aug-03 13:36 299 13 gusting 17
2020-Aug-03 13:30 297 13 gusting 14
2020-Aug-03 13:24 294 13 gusting 15
2020-Aug-03 13:18 292 13 gusting 16
2020-Aug-03 13:12 288 14 gusting 16
2020-Aug-03 13:06 288 13 gusting 17
2020-Aug-03 13:00 280 12 gusting 14
2020-Aug-03 12:42 278 12 gusting 13
2020-Aug-03 12:36 274 11 gusting 13
2020-Aug-03 12:30 275 10 gusting 13
2020-Aug-03 12:24 275 11 gusting 13
2020-Aug-03 12:18 274 12 gusting 13
2020-Aug-03 12:12 273 12 gusting 13
2020-Aug-03 12:06 273 11 gusting 13
2020-Aug-03 12:00 273 11 gusting 13
2020-Aug-03 11:42 271 11 gusting 13
2020-Aug-03 11:36 270 10 gusting 13
2020-Aug-03 11:30 272 11 gusting 13
2020-Aug-03 11:24 272 11 gusting 13
2020-Aug-03 11:18 273 11 gusting 13
2020-Aug-03 11:12 272 10 gusting 11
2020-Aug-03 11:06 271 10 gusting 12
2020-Aug-03 11:00 271 10 gusting 11
2020-Aug-03 10:42 273 9 gusting 11
2020-Aug-03 10:36 274 9 gusting 11
2020-Aug-03 10:30 268 7 gusting 9
2020-Aug-03 10:24 263 6 gusting 11
2020-Aug-03 10:18 267 6 gusting 9
2020-Aug-03 10:12 269 7 gusting 9
2020-Aug-03 10:06 271 7 gusting 9
2020-Aug-03 10:00 266 6 gusting 7
2020-Aug-03 09:42 271 8 gusting 9
2020-Aug-03 09:36 266 6 gusting 7
2020-Aug-03 09:30 261 4 gusting 6
2020-Aug-03 09:24 254 4 gusting 6
2020-Aug-03 09:18 251 4 gusting 6
2020-Aug-03 09:12 259 3 gusting 6
2020-Aug-03 09:06 258 2 gusting 5
2020-Aug-03 09:00 265 3 gusting 5
2020-Aug-03 08:42 264 3 gusting 4
2020-Aug-03 08:36 267 4 gusting 6
2020-Aug-03 08:30 260 3 gusting 5
2020-Aug-03 08:24 253 4 gusting 5
2020-Aug-03 08:18 254 5 gusting 7
2020-Aug-03 08:12 255 6 gusting 7
2020-Aug-03 08:06 258 6 gusting 8
2020-Aug-03 08:00 260 4 gusting 6
2020-Aug-03 07:42 238 5 gusting 8
2020-Aug-03 07:36 225 6 gusting 8
2020-Aug-03 07:30 228 5 gusting 7
2020-Aug-03 07:24 249 6 gusting 9
2020-Aug-03 07:18 255 6 gusting 9
2020-Aug-03 07:12 256 6 gusting 7
2020-Aug-03 07:06 260 6 gusting 8
2020-Aug-03 07:00 259 6 gusting 8
2020-Aug-03 06:42 245 6 gusting 8
2020-Aug-03 06:36 241 7 gusting 10
2020-Aug-03 06:30 247 9 gusting 12
2020-Aug-03 06:24 243 9 gusting 12
2020-Aug-03 06:18 244 7 gusting 13
2020-Aug-03 06:12 243 9 gusting 13
2020-Aug-03 06:06 241 8 gusting 13
2020-Aug-03 06:00 249 8 gusting 11
2020-Aug-03 05:42 230 6 gusting 8
2020-Aug-03 05:36 234 5 gusting 9
2020-Aug-03 05:30 243 5 gusting 7
2020-Aug-03 05:24 240 6 gusting 9
2020-Aug-03 05:18 234 8 gusting 9
2020-Aug-03 05:12 240 7 gusting 8
2020-Aug-03 05:06 242 6 gusting 9
2020-Aug-03 05:00 245 7 gusting 11
2020-Aug-03 03:42 231 6 gusting 8
2020-Aug-03 03:36 243 4 gusting 6
2020-Aug-03 03:30 258 6 gusting 7
2020-Aug-03 03:24 264 5 gusting 6
2020-Aug-03 03:18 254 3 gusting 6
2020-Aug-03 03:12 266 6 gusting 6
2020-Aug-03 03:06 251 6 gusting 8
2020-Aug-03 03:00 250 6 gusting 10
2020-Aug-03 02:54 245 8 gusting 12
2020-Aug-03 02:42 236 7 gusting 11
2020-Aug-03 02:36 263 7 gusting 10
2020-Aug-03 02:30 260 6 gusting 9
2020-Aug-03 02:24 248 6 gusting 10
2020-Aug-03 02:18 243 8 gusting 10
2020-Aug-03 02:12 249 7 gusting 11
2020-Aug-03 02:06 241 10 gusting 13
2020-Aug-03 02:00 239 7 gusting 10
2020-Aug-03 01:42 228 11 gusting 12
2020-Aug-03 01:36 238 7 gusting 11
2020-Aug-03 01:30 235 9 gusting 13
2020-Aug-03 01:24 237 9 gusting 12
2020-Aug-03 01:18 241 12 gusting 13
2020-Aug-03 01:12 241 9 gusting 12
2020-Aug-03 01:06 239 9 gusting 13
2020-Aug-03 01:00 235 11 gusting 13
2020-Aug-03 00:42 239 8 gusting 15
2020-Aug-03 00:36 243 12 gusting 14
2020-Aug-03 00:30 246 12 gusting 16
2020-Aug-03 00:24 238 12 gusting 14
2020-Aug-03 00:18 240 13 gusting 17
2020-Aug-03 00:12 244 14 gusting 19
2020-Aug-03 00:06 243 13 gusting 17
2020-Aug-03 00:00 247 12 gusting 16
2020-Aug-02 23:42 246 11 gusting 15
2020-Aug-02 23:36 237 9 gusting 13
2020-Aug-02 23:30 245 11 gusting 17
2020-Aug-02 23:24 246 13 gusting 19
2020-Aug-02 23:18 235 15 gusting 19
2020-Aug-02 22:42 236 13 gusting 19
2020-Aug-02 22:36 236 17 gusting 20
2020-Aug-02 22:30 234 16 gusting 20
2020-Aug-02 22:24 234 16 gusting 19
2020-Aug-02 22:18 237 14 gusting 19
2020-Aug-02 22:12 241 14 gusting 18
2020-Aug-02 22:06 238 14 gusting 19
2020-Aug-02 22:00 239 13 gusting 19
2020-Aug-02 21:42 237 15 gusting 20
2020-Aug-02 21:36 238 13 gusting 19
2020-Aug-02 21:30 242 12 gusting 23
2020-Aug-02 21:24 232 15 gusting 22
2020-Aug-02 21:18 236 18 gusting 22
2020-Aug-02 21:12 233 15 gusting 20
2020-Aug-02 21:06 236 15 gusting 20
2020-Aug-02 21:00 235 13 gusting 18
2020-Aug-02 20:42 238 15 gusting 19
2020-Aug-02 20:36 240 14 gusting 19
2020-Aug-02 20:30 240 15 gusting 19
2020-Aug-02 20:24 239 14 gusting 18
2020-Aug-02 20:18 236 14 gusting 19
2020-Aug-02 20:12 237 13 gusting 18
2020-Aug-02 20:06 234 13 gusting 19
2020-Aug-02 20:00 235 13 gusting 16
2020-Aug-02 19:42 241 12 gusting 17
2020-Aug-02 19:36 242 11 gusting 16
2020-Aug-02 19:30 240 13 gusting 19
2020-Aug-02 19:24 239 13 gusting 18
2020-Aug-02 19:18 239 14 gusting 18
2020-Aug-02 19:12 240 11 gusting 17
2020-Aug-02 19:06 238 10 gusting 16
2020-Aug-02 19:00 237 13 gusting 18
2020-Aug-02 18:42 234 13 gusting 16
2020-Aug-02 18:36 234 10 gusting 14
2020-Aug-02 18:30 241 11 gusting 16
2020-Aug-02 18:24 236 12 gusting 18
2020-Aug-02 18:18 228 12 gusting 16
2020-Aug-02 18:12 231 12 gusting 14
2020-Aug-02 18:06 228 10 gusting 13
2020-Aug-02 18:00 227 11 gusting 13
2020-Aug-02 16:42 227 13 gusting 15
2020-Aug-02 16:36 225 11 gusting 15
2020-Aug-02 16:30 231 13 gusting 15
2020-Aug-02 16:24 229 10 gusting 14
2020-Aug-02 16:18 220 10 gusting 13
2020-Aug-02 16:12 212 7 gusting 9
2020-Aug-02 16:06 209 7 gusting 10
2020-Aug-02 16:00 212 6 gusting 11
2020-Aug-02 15:42 211 7 gusting 11
2020-Aug-02 15:36 216 9 gusting 12
2020-Aug-02 15:30 219 7 gusting 9
2020-Aug-02 15:24 222 5 gusting 8
2020-Aug-02 15:18 209 6 gusting 7
2020-Aug-02 15:12 216 6 gusting 8
2020-Aug-02 15:06 209 7 gusting 9
2020-Aug-02 15:00 219 6 gusting 8
2020-Aug-02 14:54 228 7 gusting 9
2020-Aug-02 14:42 237 6 gusting 8
2020-Aug-02 14:36 238 6 gusting 11
2020-Aug-02 14:30 229 8 gusting 10
2020-Aug-02 14:24 222 8 gusting 11
2020-Aug-02 14:18 219 6 gusting 8
2020-Aug-02 14:12 209 6 gusting 8
2020-Aug-02 14:06 223 6 gusting 8
2020-Aug-02 14:00 222 6 gusting 10
2020-Aug-02 13:42 198 6 gusting 8
2020-Aug-02 13:36 213 7 gusting 10
2020-Aug-02 13:30 216 6 gusting 9
2020-Aug-02 13:24 216 7 gusting 9
2020-Aug-02 13:18 215 7 gusting 9
2020-Aug-02 13:12 231 6 gusting 9
2020-Aug-02 13:06 234 7 gusting 9
2020-Aug-02 13:00 231 6 gusting 10
2020-Aug-02 12:42 228 9 gusting 12
2020-Aug-02 12:36 238 10 gusting 13
2020-Aug-02 12:30 236 7 gusting 13
2020-Aug-02 12:24 229 9 gusting 14
2020-Aug-02 12:18 226 7 gusting 10
2020-Aug-02 12:12 233 9 gusting 12
2020-Aug-02 12:06 228 7 gusting 10
2020-Aug-02 12:00 219 9 gusting 12
2020-Aug-02 11:42 229 9 gusting 13
2020-Aug-02 11:36 228 9 gusting 13
2020-Aug-02 11:30 180 1 gusting 3
2020-Aug-02 11:24 223 2 gusting 3
2020-Aug-02 11:18 233 1 gusting 6
2020-Aug-02 11:12 234 5 gusting 9
2020-Aug-02 11:06 226 7 gusting 10
2020-Aug-02 11:00 228 7 gusting 11
2020-Aug-02 10:42 223 10 gusting 13
2020-Aug-02 10:36 220 8 gusting 15
2020-Aug-02 10:30 219 11 gusting 13
2020-Aug-02 10:24 222 9 gusting 15
2020-Aug-02 10:18 224 10 gusting 13
2020-Aug-02 10:12 226 10 gusting 14
2020-Aug-02 10:06 226 10 gusting 13
2020-Aug-02 10:00 224 9 gusting 13
2020-Aug-02 09:42 212 9 gusting 12
2020-Aug-02 09:36 221 6 gusting 8
2020-Aug-02 09:30 220 7 gusting 10
2020-Aug-02 09:24 236 7 gusting 11
2020-Aug-02 09:18 231 8 gusting 11
2020-Aug-02 09:12 226 7 gusting 10
2020-Aug-02 09:06 232 6 gusting 8
2020-Aug-02 09:00 238 5 gusting 9
2020-Aug-02 08:42 229 5 gusting 8
2020-Aug-02 08:36 233 7 gusting 12
2020-Aug-02 08:30 233 8 gusting 13
2020-Aug-02 08:24 236 10 gusting 16
2020-Aug-02 08:18 242 15 gusting 19
2020-Aug-02 08:12 244 8 gusting 18
2020-Aug-02 08:06 239 12 gusting 16
2020-Aug-02 08:00 241 11 gusting 15
2020-Aug-02 07:42 227 9 gusting 12
2020-Aug-02 07:36 227 10 gusting 14
2020-Aug-02 07:30 220 7 gusting 9
2020-Aug-02 07:24 224 6 gusting 7
2020-Aug-02 07:18 232 6 gusting 9
2020-Aug-02 07:12 226 7 gusting 10
2020-Aug-02 07:06 231 7 gusting 10
2020-Aug-02 07:00 230 8 gusting 10
2020-Aug-02 06:42 238 9 gusting 13
2020-Aug-02 06:36 243 8 gusting 12
2020-Aug-02 06:30 238 8 gusting 13
2020-Aug-02 06:24 240 8 gusting 12
2020-Aug-02 06:18 239 8 gusting 12
2020-Aug-02 06:12 242 7 gusting 10
2020-Aug-02 06:06 250 7 gusting 11
2020-Aug-02 06:00 230 8 gusting 13